createdAt,value
2018-12-22T00:02:25.125Z,18.40
2018-12-22T00:04:53.324Z,18.93
2018-12-22T00:07:21.496Z,18.13
2018-12-22T00:09:49.700Z,17.03
2018-12-22T00:12:17.963Z,17.67
2018-12-22T00:14:46.187Z,17.20
2018-12-22T00:17:14.392Z,18.50
2018-12-22T00:19:42.572Z,16.90
2018-12-22T00:22:10.777Z,18.17
2018-12-22T00:24:38.952Z,20.00
2018-12-22T00:27:07.283Z,21.50
2018-12-22T00:29:35.452Z,19.80
2018-12-22T00:32:03.629Z,21.00
2018-12-22T00:34:31.849Z,18.23
2018-12-22T00:37:00.012Z,17.50
2018-12-22T00:39:28.188Z,17.40
2018-12-22T00:41:56.408Z,15.97
2018-12-22T00:44:24.580Z,18.83
2018-12-22T00:46:52.916Z,17.40
2018-12-22T00:49:21.088Z,18.70
2018-12-22T00:51:49.300Z,19.70
2018-12-22T00:54:18.101Z,21.07
2018-12-22T00:56:46.377Z,20.50
2018-12-22T00:59:14.604Z,19.20
2018-12-22T01:01:42.780Z,19.53
2018-12-22T01:04:11.000Z,19.60
2018-12-22T01:06:39.316Z,20.73
2018-12-22T01:09:07.685Z,21.17
2018-12-22T01:11:36.052Z,20.50
2018-12-22T01:14:04.377Z,20.50
2018-12-22T01:16:32.548Z,20.03
2018-12-22T01:19:00.717Z,20.73
2018-12-22T01:21:28.948Z,21.77
2018-12-22T01:23:57.165Z,22.47
2018-12-22T01:26:25.437Z,21.50
2018-12-22T01:28:53.661Z,22.53
2018-12-22T01:31:21.834Z,22.87
2018-12-22T01:33:50.012Z,22.07
2018-12-22T01:36:18.230Z,22.80
2018-12-22T01:38:46.436Z,23.10
2018-12-22T01:41:14.663Z,24.07
2018-12-22T01:43:42.912Z,24.90
2018-12-22T01:46:11.080Z,25.33
2018-12-22T01:48:39.302Z,23.60
2018-12-22T01:51:07.564Z,24.97
2018-12-22T01:53:35.794Z,26.13
2018-12-22T01:56:04.176Z,24.47
2018-12-22T01:58:32.460Z,26.10
2018-12-22T02:01:00.725Z,24.93
2018-12-22T02:03:28.940Z,24.30
2018-12-22T02:05:57.117Z,22.87
2018-12-22T02:08:25.334Z,25.10
2018-12-22T02:10:53.504Z,26.77
2018-12-22T02:13:21.680Z,26.30
2018-12-22T02:15:49.880Z,26.93
2018-12-22T02:18:18.157Z,25.47
2018-12-22T02:20:46.473Z,24.87
2018-12-22T02:23:14.700Z,21.13
2018-12-22T02:25:42.872Z,22.23
2018-12-22T02:28:11.092Z,20.80
2018-12-22T02:30:39.267Z,21.37
2018-12-22T02:33:07.487Z,21.90
2018-12-22T02:35:35.688Z,21.37
2018-12-22T02:38:03.961Z,22.63
2018-12-22T02:40:32.180Z,22.77
2018-12-22T02:43:00.493Z,23.20
2018-12-22T02:45:28.666Z,22.97
2018-12-22T02:47:56.840Z,23.77
2018-12-22T02:50:25.100Z,22.60
2018-12-22T02:52:53.281Z,22.37
2018-12-22T02:55:21.504Z,23.13
2018-12-22T02:57:49.734Z,23.20
2018-12-22T03:00:18.093Z,25.63
2018-12-22T03:02:46.312Z,25.97
2018-12-22T03:05:14.517Z,24.87
2018-12-22T03:07:42.696Z,26.30
2018-12-22T03:10:11.025Z,24.27
2018-12-22T03:12:39.192Z,25.53
2018-12-22T03:15:07.448Z,25.07
2018-12-22T03:17:35.644Z,25.50
2018-12-22T03:20:04.180Z,24.63
2018-12-22T03:22:32.369Z,26.50
2018-12-22T03:25:00.664Z,25.30
2018-12-22T03:27:28.875Z,25.83
2018-12-22T03:29:57.053Z,26.10
2018-12-22T03:32:25.381Z,26.17
2018-12-22T03:34:53.584Z,26.97
2018-12-22T03:37:21.755Z,25.97
2018-12-22T03:39:49.963Z,25.83
2018-12-22T03:42:18.160Z,26.00
2018-12-22T03:44:46.374Z,25.20
2018-12-22T03:47:14.861Z,26.60
2018-12-22T03:49:43.178Z,26.93
2018-12-22T03:52:11.388Z,27.30
2018-12-22T03:54:39.613Z,28.43
2018-12-22T03:57:07.826Z,26.90
2018-12-22T03:59:36.032Z,27.97
2018-12-22T04:02:04.261Z,28.80
2018-12-22T04:04:32.424Z,27.83
2018-12-22T04:07:00.610Z,29.27
2018-12-22T04:09:28.920Z,27.03
2018-12-22T04:11:57.096Z,27.83
2018-12-22T04:14:25.310Z,27.57
2018-12-22T04:16:53.515Z,27.63
2018-12-22T04:19:21.841Z,27.87
2018-12-22T04:21:50.058Z,26.67
2018-12-22T04:24:18.224Z,27.47
2018-12-22T04:26:46.431Z,29.53
2018-12-22T04:29:14.675Z,29.83
2018-12-22T04:31:42.971Z,28.27
2018-12-22T04:34:11.245Z,28.57
2018-12-22T04:36:39.417Z,28.57
2018-12-22T04:39:08.150Z,28.53
2018-12-22T04:41:36.373Z,29.87
2018-12-22T04:44:04.650Z,30.50
2018-12-22T04:46:32.866Z,29.13
2018-12-22T04:49:01.035Z,28.60
2018-12-22T04:51:29.351Z,28.70
2018-12-22T04:53:57.525Z,28.53
2018-12-22T04:56:25.761Z,28.17
2018-12-22T04:58:53.964Z,27.80
2018-12-22T05:01:22.168Z,27.60
2018-12-22T05:03:50.376Z,29.20
2018-12-22T05:06:18.552Z,28.90
2018-12-22T05:08:46.747Z,29.33
2018-12-22T05:11:14.952Z,29.60
2018-12-22T05:13:43.141Z,29.10
2018-12-22T05:16:11.431Z,28.90
2018-12-22T05:18:39.641Z,29.43
2018-12-22T05:21:07.845Z,30.77
2018-12-22T05:23:36.141Z,29.83
2018-12-22T05:26:04.326Z,28.83
2018-12-22T05:28:32.528Z,29.60
2018-12-22T05:31:00.700Z,28.60
2018-12-22T05:33:28.925Z,29.60
2018-12-22T05:35:57.139Z,29.13
2018-12-22T05:38:25.320Z,29.00
2018-12-22T05:40:53.534Z,30.30
2018-12-22T05:43:21.711Z,27.83
2018-12-22T05:45:49.929Z,30.77
2018-12-22T05:48:18.118Z,29.47
2018-12-22T05:50:46.337Z,31.30
2018-12-22T05:53:14.508Z,29.80
2018-12-22T05:55:42.686Z,29.00
2018-12-22T05:58:10.908Z,29.37
2018-12-22T06:00:39.116Z,29.40
2018-12-22T06:03:07.377Z,29.00
2018-12-22T06:05:35.554Z,29.13
2018-12-22T06:08:03.736Z,28.10
2018-12-22T06:10:31.948Z,27.07
2018-12-22T06:13:00.215Z,26.10
2018-12-22T06:15:28.386Z,26.93
2018-12-22T06:17:56.592Z,26.70
2018-12-22T06:20:24.887Z,25.57
2018-12-22T06:22:53.104Z,24.67
2018-12-22T06:25:21.318Z,25.87
2018-12-22T06:27:49.487Z,25.70
2018-12-22T06:30:17.708Z,25.37
2018-12-22T06:32:45.897Z,24.60
2018-12-22T06:35:14.117Z,24.37
2018-12-22T06:37:42.288Z,25.53
2018-12-22T06:40:10.459Z,23.97
2018-12-22T06:42:38.692Z,23.20
2018-12-22T06:45:07.093Z,23.97
2018-12-22T06:47:35.309Z,23.27
2018-12-22T06:50:03.603Z,24.13
2018-12-22T06:52:31.820Z,24.30
2018-12-22T06:55:00.162Z,23.43
2018-12-22T06:57:28.445Z,23.00
2018-12-22T06:59:56.641Z,22.80
2018-12-22T07:02:24.865Z,22.80
2018-12-22T07:04:53.056Z,21.83
2018-12-22T07:07:21.322Z,22.10
2018-12-22T07:09:49.536Z,22.57
2018-12-22T07:12:17.776Z,22.13
2018-12-22T07:14:46.005Z,22.60
2018-12-22T07:17:14.229Z,21.80
2018-12-22T07:19:42.445Z,22.97
2018-12-22T07:22:10.684Z,22.00
2018-12-22T07:24:38.898Z,22.23
2018-12-22T07:27:07.076Z,21.33
2018-12-22T07:29:35.304Z,23.30
2018-12-22T07:32:03.487Z,23.10
2018-12-22T07:34:31.724Z,22.00
2018-12-22T07:37:00.021Z,21.20
2018-12-22T07:39:28.378Z,22.03
2018-12-22T07:41:56.588Z,22.50
2018-12-22T07:44:24.792Z,22.50
2018-12-22T07:46:53.036Z,21.97
2018-12-22T07:49:21.204Z,23.33
2018-12-22T07:51:49.385Z,22.50
2018-12-22T07:54:17.620Z,22.77
2018-12-22T07:56:45.848Z,24.70
2018-12-22T07:59:14.022Z,23.73
2018-12-22T08:01:42.249Z,23.47
2018-12-22T08:04:10.722Z,22.70
2018-12-22T08:06:38.929Z,24.00
2018-12-22T08:09:07.832Z,22.13
2018-12-22T08:11:36.080Z,22.70
2018-12-22T08:14:04.637Z,22.00
2018-12-22T08:16:32.836Z,23.13
2018-12-22T08:19:01.086Z,22.43
2018-12-22T08:21:29.345Z,22.30
2018-12-22T08:23:57.532Z,20.73
2018-12-22T08:26:25.760Z,21.13
2018-12-22T08:28:53.976Z,21.50
2018-12-22T08:31:23.201Z,22.77
2018-12-22T08:33:51.510Z,22.20
2018-12-22T08:36:19.690Z,22.23
2018-12-22T08:38:47.872Z,21.37
2018-12-22T08:41:16.190Z,21.17
2018-12-22T08:43:44.368Z,23.77
2018-12-22T08:46:12.556Z,23.37
2018-12-22T08:48:40.784Z,22.13
2018-12-22T08:51:09.088Z,22.20
2018-12-22T08:53:37.304Z,22.17
2018-12-22T08:56:05.477Z,22.80
2018-12-22T08:58:33.693Z,23.03
2018-12-22T09:01:01.922Z,22.73
2018-12-22T09:03:30.132Z,23.63
2018-12-22T09:05:58.304Z,22.70
2018-12-22T09:08:26.520Z,22.80
2018-12-22T09:10:54.720Z,22.53
2018-12-22T09:13:23.053Z,23.10
2018-12-22T09:15:51.275Z,22.53
2018-12-22T09:18:19.493Z,23.43
2018-12-22T09:20:47.745Z,21.50
2018-12-22T09:23:16.049Z,21.83
2018-12-22T09:25:44.238Z,21.70
2018-12-22T09:28:12.428Z,21.77
2018-12-22T09:30:40.689Z,21.67
2018-12-22T09:33:08.973Z,21.63
2018-12-22T09:35:37.211Z,21.70
2018-12-22T09:38:05.488Z,22.03
2018-12-22T09:40:33.910Z,23.53
2018-12-22T09:43:02.100Z,23.60
2018-12-22T09:45:30.336Z,21.80
2018-12-22T09:47:58.713Z,20.73
2018-12-22T09:50:26.957Z,21.90
2018-12-22T09:52:55.135Z,23.00
2018-12-22T09:55:23.333Z,21.37
2018-12-22T09:57:51.600Z,20.13
2018-12-22T10:00:19.936Z,20.90
2018-12-22T10:02:48.184Z,19.53
2018-12-22T10:05:16.355Z,20.70
2018-12-22T10:07:44.585Z,21.30
2018-12-22T10:10:16.216Z,21.23
2018-12-22T10:12:44.444Z,19.80
2018-12-22T10:15:12.724Z,20.67
2018-12-22T10:17:41.101Z,20.30
2018-12-22T10:20:09.775Z,19.93
2018-12-22T10:22:37.989Z,19.73
2018-12-22T10:25:09.929Z,21.03
2018-12-22T10:27:38.144Z,20.67
2018-12-22T10:30:10.300Z,20.37
2018-12-22T10:32:38.529Z,21.00
2018-12-22T10:35:09.697Z,20.83
2018-12-22T10:37:37.915Z,20.00
2018-12-22T10:40:06.875Z,19.40
2018-12-22T10:42:35.049Z,20.27
2018-12-22T10:45:03.268Z,20.23
2018-12-22T10:47:31.436Z,19.33
2018-12-22T10:49:59.614Z,20.47
2018-12-22T10:52:27.815Z,20.30
2018-12-22T10:54:55.997Z,19.10
2018-12-22T10:57:24.208Z,21.03
2018-12-22T10:59:52.381Z,20.97
2018-12-22T11:02:20.600Z,20.33
2018-12-22T11:04:48.786Z,20.57
2018-12-22T11:07:16.957Z,21.30
2018-12-22T11:09:45.212Z,20.33
2018-12-22T11:12:13.390Z,20.10
2018-12-22T11:14:41.648Z,20.53
2018-12-22T11:17:09.884Z,21.00
2018-12-22T11:19:38.083Z,22.97
2018-12-22T11:22:06.280Z,20.33
2018-12-22T11:24:34.497Z,20.03
2018-12-22T11:27:02.700Z,21.07
2018-12-22T11:29:30.903Z,20.37
2018-12-22T11:31:59.097Z,20.43
2018-12-22T11:34:27.348Z,20.20
2018-12-22T11:36:55.569Z,21.30
2018-12-22T11:39:23.767Z,20.00
2018-12-22T11:41:51.979Z,21.40
2018-12-22T11:44:20.225Z,20.50
2018-12-22T11:46:48.408Z,20.00
2018-12-22T11:49:29.115Z,20.03
2018-12-22T11:51:57.316Z,20.13
2018-12-22T11:54:25.493Z,20.20
2018-12-22T11:56:53.796Z,20.57
2018-12-22T11:59:21.980Z,22.70
2018-12-22T12:01:50.200Z,21.70
2018-12-22T12:04:18.408Z,21.40
2018-12-22T12:06:46.628Z,21.60
2018-12-22T12:09:14.804Z,22.30
2018-12-22T12:11:43.079Z,23.60
2018-12-22T12:14:11.292Z,23.00
2018-12-22T12:16:45.981Z,22.70
2018-12-22T12:19:18.308Z,22.43
2018-12-22T12:21:46.482Z,21.70
2018-12-22T12:24:15.140Z,22.77
2018-12-22T12:26:43.353Z,21.47
2018-12-22T12:29:11.576Z,22.87
2018-12-22T12:31:39.792Z,22.17
2018-12-22T12:34:07.960Z,22.57
2018-12-22T12:36:36.281Z,21.57
2018-12-22T12:39:07.272Z,21.27
2018-12-22T12:41:35.545Z,21.90
2018-12-22T12:44:04.025Z,21.90
2018-12-22T12:46:44.828Z,23.00
2018-12-22T12:49:13.504Z,21.87
2018-12-22T12:51:41.722Z,22.47
2018-12-22T12:54:10.029Z,23.10
2018-12-22T12:56:41.657Z,22.77
2018-12-22T12:59:09.936Z,21.80
2018-12-22T13:01:38.158Z,22.40
2018-12-22T13:04:06.442Z,22.50
2018-12-22T13:06:34.761Z,24.40
2018-12-22T13:09:03.276Z,22.43
2018-12-22T13:11:31.489Z,21.63
2018-12-22T13:14:03.513Z,22.30
2018-12-22T13:16:32.579Z,22.60
2018-12-22T13:19:00.761Z,21.70
2018-12-22T13:21:29.285Z,21.90
2018-12-22T13:23:57.507Z,23.40
2018-12-22T13:26:25.677Z,23.87
2018-12-22T13:28:53.844Z,24.50
2018-12-22T13:31:24.435Z,23.07
2018-12-22T13:33:52.604Z,23.90
2018-12-22T13:36:20.790Z,24.10
2018-12-22T13:39:00.772Z,24.27
2018-12-22T13:41:28.981Z,23.30
2018-12-22T13:43:57.268Z,24.00
2018-12-22T13:46:25.448Z,23.83
2018-12-22T13:48:53.979Z,23.17
2018-12-22T13:51:22.511Z,23.50
2018-12-22T13:53:51.028Z,23.00
2018-12-22T13:56:19.253Z,22.80
2018-12-22T13:58:47.476Z,24.77
2018-12-22T14:01:18.436Z,23.53
2018-12-22T14:03:46.792Z,24.83
2018-12-22T14:06:22.396Z,23.10
2018-12-22T14:08:50.609Z,24.20
2018-12-22T14:11:18.918Z,24.23
2018-12-22T14:13:47.088Z,24.10
2018-12-22T14:18:27.012Z,24.23
2018-12-22T14:20:55.313Z,23.33
2018-12-22T14:23:25.604Z,24.40
2018-12-22T14:25:53.780Z,23.80
2018-12-22T14:28:22.004Z,22.30
2018-12-22T14:30:50.177Z,23.10
2018-12-22T14:33:18.356Z,23.63
2018-12-22T14:35:50.529Z,24.77
2018-12-22T14:38:18.739Z,24.60
2018-12-22T14:40:46.955Z,26.40
2018-12-22T14:43:15.168Z,25.80
2018-12-22T14:45:43.392Z,27.00
2018-12-22T14:48:11.572Z,26.00
2018-12-22T14:50:39.793Z,27.83
2018-12-22T14:53:07.964Z,26.10
2018-12-22T14:55:36.144Z,26.30
2018-12-22T14:58:17.224Z,25.93
2018-12-22T15:00:45.496Z,27.27
2018-12-22T15:03:13.709Z,26.97
2018-12-22T15:05:42.020Z,25.83
2018-12-22T15:08:10.252Z,25.00
2018-12-22T15:10:38.428Z,27.30
2018-12-22T15:13:06.608Z,27.10
2018-12-22T15:15:34.816Z,27.90
2018-12-22T15:18:02.984Z,27.43
2018-12-22T15:20:32.408Z,31.00
2018-12-22T15:23:01.853Z,29.60
2018-12-22T15:25:30.390Z,27.63
2018-12-22T15:27:58.757Z,27.07
2018-12-22T15:30:26.933Z,29.23
2018-12-22T15:32:55.124Z,28.73
2018-12-22T15:35:23.429Z,30.13
2018-12-22T15:37:51.608Z,28.93
2018-12-22T15:40:19.830Z,29.33
2018-12-22T15:42:48.039Z,29.43
2018-12-22T15:45:16.260Z,28.37
2018-12-22T15:47:44.513Z,28.47
2018-12-22T15:50:15.202Z,27.10
2018-12-22T15:52:43.529Z,27.97
2018-12-22T15:55:11.897Z,28.13
2018-12-22T15:57:40.233Z,28.33
2018-12-22T16:00:10.548Z,28.20
2018-12-22T16:02:38.908Z,29.80
2018-12-22T16:05:08.604Z,29.40
2018-12-22T16:07:37.036Z,27.67
2018-12-22T16:10:08.217Z,28.00
2018-12-22T16:12:36.444Z,29.10
2018-12-22T16:15:06.061Z,28.20
2018-12-22T16:17:34.236Z,29.20
2018-12-22T16:20:02.444Z,28.23
2018-12-22T16:22:30.661Z,29.03
2018-12-22T16:24:58.932Z,27.27
2018-12-22T16:27:27.141Z,25.27
2018-12-22T16:29:55.532Z,28.80
2018-12-22T16:32:23.716Z,26.93
2018-12-22T16:34:51.920Z,27.33
2018-12-22T16:37:20.144Z,28.20
2018-12-22T16:39:48.324Z,27.80
2018-12-22T16:42:16.562Z,28.70
2018-12-22T16:44:44.804Z,26.63
2018-12-22T16:47:13.032Z,27.03
2018-12-22T16:49:41.353Z,26.67
2018-12-22T16:52:09.532Z,27.03
2018-12-22T16:54:37.764Z,26.90
2018-12-22T16:57:05.948Z,25.77
2018-12-22T16:59:35.993Z,26.70
2018-12-22T17:02:18.860Z,27.67
2018-12-22T17:04:47.088Z,28.80
2018-12-22T17:07:15.275Z,28.13
2018-12-22T17:09:43.448Z,27.13
2018-12-22T17:12:11.663Z,27.07
2018-12-22T17:14:40.077Z,29.50
2018-12-22T17:17:08.481Z,28.00
2018-12-22T17:19:36.696Z,30.03
2018-12-22T17:22:08.472Z,28.73
2018-12-22T17:24:49.712Z,27.23
2018-12-22T17:27:18.210Z,26.60
2018-12-22T17:29:46.392Z,26.57
2018-12-22T17:32:14.713Z,26.40
2018-12-22T17:34:42.976Z,28.23
2018-12-22T17:37:11.784Z,23.93
2018-12-22T17:39:40.060Z,25.47
2018-12-22T17:42:08.276Z,26.10
2018-12-22T17:44:36.492Z,25.50
2018-12-22T17:47:04.708Z,26.10
2018-12-22T17:49:32.891Z,26.50
2018-12-22T17:52:01.305Z,26.10
2018-12-22T17:54:29.481Z,27.30
2018-12-22T17:56:57.653Z,25.70
2018-12-22T17:59:25.873Z,25.00
2018-12-22T18:01:54.060Z,26.23
2018-12-22T18:04:22.381Z,26.67
2018-12-22T18:06:50.555Z,25.37
2018-12-22T18:09:18.764Z,27.23
2018-12-22T18:11:46.948Z,25.93
2018-12-22T18:14:15.128Z,26.17
2018-12-22T18:16:43.368Z,25.27
2018-12-22T18:19:11.569Z,27.23
2018-12-22T18:21:39.760Z,28.40
2018-12-22T18:24:07.975Z,27.43
2018-12-22T18:26:36.157Z,29.60
2018-12-22T18:29:04.473Z,27.07
2018-12-22T18:31:32.703Z,28.07
2018-12-22T18:34:00.988Z,29.20
2018-12-22T18:36:29.188Z,28.50
2018-12-22T18:38:57.396Z,28.23
2018-12-22T18:41:25.616Z,27.43
2018-12-22T18:43:53.800Z,28.03
2018-12-22T18:46:21.972Z,27.47
2018-12-22T18:48:50.317Z,28.03
2018-12-22T18:51:18.520Z,26.40
2018-12-22T18:53:46.729Z,29.73
2018-12-22T18:56:14.919Z,29.70
2018-12-22T18:58:43.144Z,28.77
2018-12-22T19:01:11.333Z,29.07
2018-12-22T19:03:44.688Z,29.80
2018-12-22T19:06:09.724Z,30.60
2018-12-22T19:08:38.020Z,32.50
2018-12-22T19:11:09.244Z,33.17
2018-12-22T19:13:37.458Z,33.40
2018-12-22T19:16:05.640Z,31.67
2018-12-22T19:18:33.851Z,31.00
2018-12-22T19:21:02.042Z,28.93
2018-12-22T19:23:30.252Z,29.70
2018-12-22T19:25:58.545Z,30.70
2018-12-22T19:28:26.719Z,28.87
2018-12-22T19:30:55.036Z,32.07
2018-12-22T19:33:23.317Z,30.30
2018-12-22T19:35:51.636Z,29.10
2018-12-22T19:38:19.885Z,29.87
2018-12-22T19:40:48.060Z,28.40
2018-12-22T19:43:16.409Z,28.77
2018-12-22T19:45:44.627Z,31.13
2018-12-22T19:48:12.789Z,28.67
2018-12-22T19:50:41.012Z,31.03
2018-12-22T19:53:09.288Z,29.83
2018-12-22T19:55:37.560Z,28.90
2018-12-22T19:58:05.772Z,30.00
2018-12-22T20:00:33.996Z,32.77
2018-12-22T20:03:02.173Z,30.17
2018-12-22T20:05:30.351Z,29.00
2018-12-22T20:07:58.580Z,30.20
2018-12-22T20:10:26.788Z,30.20
2018-12-22T20:12:54.995Z,32.13
2018-12-22T20:15:23.309Z,31.37
2018-12-22T20:17:51.501Z,32.10
2018-12-22T20:20:19.716Z,30.80
2018-12-22T20:22:47.928Z,30.40
2018-12-22T20:25:16.104Z,32.13
2018-12-22T20:27:44.323Z,33.10
2018-12-22T20:30:12.501Z,28.33
2018-12-22T20:32:40.708Z,29.57
2018-12-22T20:35:08.937Z,32.00
2018-12-22T20:37:37.149Z,33.13
2018-12-22T20:40:06.448Z,33.20
2018-12-22T20:42:34.623Z,31.40
2018-12-22T20:45:02.866Z,34.00
2018-12-22T20:47:31.047Z,33.07
2018-12-22T20:49:59.224Z,33.20
2018-12-22T20:52:27.472Z,33.50
2018-12-22T20:54:56.517Z,36.43
2018-12-22T20:57:24.683Z,34.17
2018-12-22T20:59:52.964Z,40.67
2018-12-22T21:02:21.209Z,38.60
2018-12-22T21:04:49.628Z,36.27
2018-12-22T21:07:17.868Z,33.90
2018-12-22T21:09:46.050Z,33.57
2018-12-22T21:12:14.228Z,34.20
2018-12-22T21:14:42.636Z,33.83
2018-12-22T21:17:10.860Z,32.50
2018-12-22T21:19:39.032Z,31.90
2018-12-22T21:22:07.214Z,32.17
2018-12-22T21:24:35.408Z,32.57
2018-12-22T21:27:03.641Z,30.80
2018-12-22T21:29:31.821Z,30.23
2018-12-22T21:32:00.084Z,33.13
2018-12-22T21:34:28.674Z,32.00
2018-12-22T21:36:56.920Z,31.73
2018-12-22T21:39:25.140Z,32.23
2018-12-22T21:41:53.355Z,31.47
2018-12-22T21:44:22.141Z,29.63
2018-12-22T21:46:50.320Z,31.63
2018-12-22T21:49:18.501Z,31.93
2018-12-22T21:51:46.716Z,29.80
2018-12-22T21:54:14.989Z,28.30
2018-12-22T21:56:43.206Z,29.33
2018-12-22T21:59:11.374Z,29.60
2018-12-22T22:01:39.604Z,29.63
2018-12-22T22:04:07.812Z,27.53
2018-12-22T22:06:36.008Z,28.63
2018-12-22T22:09:05.568Z,26.70
2018-12-22T22:11:33.740Z,26.37
2018-12-22T22:14:01.920Z,26.57
2018-12-22T22:16:30.139Z,28.73
2018-12-22T22:18:58.352Z,29.23
2018-12-22T22:21:26.520Z,25.83
2018-12-22T22:23:54.760Z,26.40
2018-12-22T22:26:23.056Z,26.90
2018-12-22T22:28:51.240Z,26.40
2018-12-22T22:31:19.612Z,26.50
2018-12-22T22:33:47.789Z,26.60
2018-12-22T22:36:15.996Z,25.20
2018-12-22T22:38:44.228Z,26.70
2018-12-22T22:41:12.416Z,25.00
2018-12-22T22:43:40.588Z,25.33
2018-12-22T22:46:08.859Z,25.13
2018-12-22T22:48:37.092Z,24.10
2018-12-22T22:51:05.266Z,23.90
2018-12-22T22:53:33.486Z,23.70
2018-12-22T22:56:01.665Z,23.50
2018-12-22T22:58:29.898Z,24.13
2018-12-22T23:00:58.216Z,23.93
2018-12-22T23:03:26.464Z,23.83
2018-12-22T23:05:54.636Z,23.83
2018-12-22T23:08:22.840Z,25.93
2018-12-22T23:10:51.046Z,22.80
2018-12-22T23:13:19.209Z,24.90
2018-12-22T23:15:47.444Z,23.50
2018-12-22T23:18:15.656Z,23.53
2018-12-22T23:20:43.851Z,25.00
2018-12-22T23:23:12.092Z,24.63
2018-12-22T23:25:40.308Z,27.43
2018-12-22T23:28:08.533Z,30.60
2018-12-22T23:30:36.736Z,33.90
2018-12-22T23:33:04.926Z,29.47
2018-12-22T23:35:33.173Z,28.47
2018-12-22T23:38:01.409Z,29.50
2018-12-22T23:40:29.584Z,25.03
2018-12-22T23:42:57.759Z,24.70
2018-12-22T23:45:25.968Z,24.47
2018-12-22T23:47:54.168Z,22.83
2018-12-22T23:50:22.464Z,22.90
2018-12-22T23:52:50.688Z,22.50
2018-12-22T23:55:18.860Z,22.47
2018-12-22T23:57:47.028Z,23.77
